TimeAWST,TemperatureF,Dew PointF,Humidity,Sea Level PressureIn,VisibilityMPH,Wind Direction,Wind SpeedMPH,Gust SpeedMPH,PrecipitationIn,Events,Conditions,WindDirDegrees,DateUTC
12:00 AM,64,54,63,29.96,,East,21.9,,,,,100,2013-02-28 16:00:00
12:00 AM,64.4,55.4,73,29.95,-9999.0,East,21.9,-,N/A,,Unknown,100,2013-02-28 16:00:00
1:00 AM,64.4,55.4,73,29.95,-9999.0,East,20.7,-,N/A,,Unknown,100,2013-02-28 17:00:00
2:00 AM,65,57,68,29.97,,East,16.1,,,,,100,2013-02-28 18:00:00
2:00 AM,64.4,57.2,77,29.98,-9999.0,East,16.1,-,N/A,,Unknown,100,2013-02-28 18:00:00
3:00 AM,65,58,72,29.98,,East,15.0,,,,,100,2013-02-28 19:00:00
3:00 AM,64.4,59.0,83,29.98,-9999.0,East,15.0,-,N/A,,Unknown,100,2013-02-28 19:00:00
4:00 AM,64.4,59.0,83,29.95,-9999.0,ESE,19.6,-,N/A,,Unknown,110,2013-02-28 20:00:00
5:00 AM,65,58,73,29.93,,East,20.7,,,,,100,2013-02-28 21:00:00
5:00 AM,64.4,59.0,83,29.95,-9999.0,East,20.7,-,N/A,,Unknown,100,2013-02-28 21:00:00
6:00 AM,64,57,71,29.96,,East,19.6,,,,,90,2013-02-28 22:00:00
6:00 AM,64.4,57.2,77,29.98,-9999.0,East,19.6,-,N/A,,Unknown,90,2013-02-28 22:00:00
7:00 AM,64.4,55.4,73,29.98,-9999.0,East,21.9,-,N/A,,Unknown,90,2013-02-28 23:00:00
8:00 AM,66,54,55,29.96,,East,21.9,,,,,90,2013-03-01 00:00:00
8:00 AM,66.2,53.6,64,29.98,-9999.0,East,21.9,-,N/A,,Unknown,90,2013-03-01 00:00:00
9:00 AM,68,53,48,29.96,,East,24.2,,,,,80,2013-03-01 01:00:00
9:00 AM,68.0,53.6,60,29.95,-9999.0,East,24.2,-,N/A,,Unknown,80,2013-03-01 01:00:00
10:00 AM,71.6,50.0,46,29.95,-9999.0,East,23.0,-,N/A,,Unknown,80,2013-03-01 02:00:00
11:00 AM,73,50,33,29.92,,East,21.9,,,,,80,2013-03-01 03:00:00
11:00 AM,73.4,50.0,44,29.92,-9999.0,East,21.9,-,N/A,,Unknown,80,2013-03-01 03:00:00
12:00 PM,75,49,29,29.87,,East,27.6,,,,,90,2013-03-01 04:00:00
12:00 PM,75.2,48.2,38,29.89,-9999.0,East,27.6,-,N/A,,Unknown,90,2013-03-01 04:00:00
1:00 PM,75.2,50.0,41,29.86,-9999.0,East,27.6,-,N/A,,Unknown,90,2013-03-01 05:00:00
2:00 PM,77,50,28,29.83,,East,29.9,,,,,80,2013-03-01 06:00:00
2:00 PM,77.0,50.0,39,29.83,-9999.0,East,29.9,-,N/A,,Unknown,80,2013-03-01 06:00:00
3:00 PM,75,52,34,29.82,,East,29.9,,,,,90,2013-03-01 07:00:00
3:00 PM,75.2,51.8,44,29.83,-9999.0,East,29.9,-,N/A,,Unknown,90,2013-03-01 07:00:00
3:18 PM,75.2,51.8,44,29.80,-9999.0,East,25.3,36.8,N/A,,Unknown,100,2013-03-01 07:18:00
4:00 PM,75.2,51.8,44,29.80,-9999.0,East,28.8,-,N/A,,Unknown,100,2013-03-01 08:00:00
5:00 PM,76,50,29,29.80,,East,26.5,,,,,100,2013-03-01 09:00:00
5:00 PM,77.0,50.0,39,29.80,-9999.0,East,26.5,-,N/A,,Unknown,100,2013-03-01 09:00:00
6:00 PM,74,54,40,29.81,,ESE,19.6,,,,,120,2013-03-01 10:00:00
6:00 PM,73.4,53.6,50,29.83,-9999.0,ESE,19.6,-,N/A,,Unknown,120,2013-03-01 10:00:00
7:00 PM,71.6,53.6,53,29.83,-9999.0,East,21.9,-,N/A,,Unknown,100,2013-03-01 11:00:00
8:00 PM,70,55,48,29.83,,East,25.3,,,,,100,2013-03-01 12:00:00
8:00 PM,69.8,55.4,60,29.83,-9999.0,East,25.3,-,N/A,,Unknown,100,2013-03-01 12:00:00
9:00 PM,70,54,48,29.84,,East,23.0,,,,,90,2013-03-01 13:00:00
9:00 PM,69.8,55.4,60,29.86,-9999.0,East,23.0,-,N/A,,Unknown,90,2013-03-01 13:00:00
10:00 PM,69.8,53.6,56,29.83,-9999.0,East,20.7,-,N/A,,Unknown,90,2013-03-01 14:00:00
11:00 PM,70,54,46,29.80,,East,21.9,,,,,90,2013-03-01 15:00:00
11:00 PM,69.8,53.6,56,29.80,-9999.0,East,21.9,-,N/A,,Unknown,90,2013-03-01 15:00:00